sensor_id;sensor_type;location;lat;lon;timestamp;temperature;humidity
51982;DHT22;37998;53.416;6.730;2023-04-24T00:00:15;11.80;99.90
51982;DHT22;37998;53.416;6.730;2023-04-24T00:02:45;11.80;99.90
51982;DHT22;37998;53.416;6.730;2023-04-24T00:05:14;11.80;99.90
51982;DHT22;37998;53.416;6.730;2023-04-24T00:07:41;11.80;99.90
51982;DHT22;37998;53.416;6.730;2023-04-24T00:10:07;11.80;99.90
51982;DHT22;37998;53.416;6.730;2023-04-24T00:12:33;11.80;99.90
51982;DHT22;37998;53.416;6.730;2023-04-24T00:15:00;11.80;99.90
51982;DHT22;37998;53.416;6.730;2023-04-24T00:17:26;11.80;99.90
51982;DHT22;37998;53.416;6.730;2023-04-24T00:19:52;11.90;99.90
51982;DHT22;37998;53.416;6.730;2023-04-24T00:22:28;11.90;99.90
51982;DHT22;37998;53.416;6.730;2023-04-24T00:24:54;11.90;99.90
51982;DHT22;37998;53.416;6.730;2023-04-24T00:27:20;11.90;99.90
51982;DHT22;37998;53.416;6.730;2023-04-24T00:29:47;11.90;99.90
51982;DHT22;37998;53.416;6.730;2023-04-24T00:32:13;11.90;99.90
51982;DHT22;37998;53.416;6.730;2023-04-24T00:34:40;11.90;99.90
51982;DHT22;37998;53.416;6.730;2023-04-24T00:37:06;11.90;99.90
51982;DHT22;37998;53.416;6.730;2023-04-24T00:39:32;11.90;99.90
51982;DHT22;37998;53.416;6.730;2023-04-24T00:41:58;11.90;99.90
51982;DHT22;37998;53.416;6.730;2023-04-24T00:44:24;11.90;99.90
51982;DHT22;37998;53.416;6.730;2023-04-24T00:46:50;11.90;99.90
51982;DHT22;37998;53.416;6.730;2023-04-24T00:49:23;11.90;99.90
51982;DHT22;37998;53.416;6.730;2023-04-24T00:51:49;12.00;99.90
51982;DHT22;37998;53.416;6.730;2023-04-24T00:54:17;12.00;99.90
51982;DHT22;37998;53.416;6.730;2023-04-24T00:56:44;12.00;99.90
51982;DHT22;37998;53.416;6.730;2023-04-24T00:59:12;11.90;99.90
51982;DHT22;37998;53.416;6.730;2023-04-24T01:01:38;11.90;99.90
51982;DHT22;37998;53.416;6.730;2023-04-24T01:04:08;11.90;99.90
51982;DHT22;37998;53.416;6.730;2023-04-24T01:06:40;11.90;99.90
51982;DHT22;37998;53.416;6.730;2023-04-24T01:09:09;11.80;99.90
51982;DHT22;37998;53.416;6.730;2023-04-24T01:11:37;11.70;99.90
51982;DHT22;37998;53.416;6.730;2023-04-24T01:14:04;11.80;99.90
51982;DHT22;37998;53.416;6.730;2023-04-24T01:16:30;11.70;99.90
51982;DHT22;37998;53.416;6.730;2023-04-24T01:18:56;11.60;99.90
51982;DHT22;37998;53.416;6.730;2023-04-24T01:21:23;11.50;99.90
51982;DHT22;37998;53.416;6.730;2023-04-24T01:23:50;11.40;99.90
51982;DHT22;37998;53.416;6.730;2023-04-24T01:26:18;11.40;99.90
51982;DHT22;37998;53.416;6.730;2023-04-24T01:28:46;11.30;99.90
51982;DHT22;37998;53.416;6.730;2023-04-24T01:31:14;11.30;99.90
51982;DHT22;37998;53.416;6.730;2023-04-24T01:33:41;11.20;99.90
51982;DHT22;37998;53.416;6.730;2023-04-24T01:36:10;11.20;99.90
51982;DHT22;37998;53.416;6.730;2023-04-24T01:38:37;11.20;99.90
51982;DHT22;37998;53.416;6.730;2023-04-24T01:41:03;11.20;99.90
51982;DHT22;37998;53.416;6.730;2023-04-24T01:43:29;11.20;99.90
51982;DHT22;37998;53.416;6.730;2023-04-24T01:45:57;11.20;99.90
51982;DHT22;37998;53.416;6.730;2023-04-24T01:48:23;11.10;99.90
51982;DHT22;37998;53.416;6.730;2023-04-24T01:50:49;11.20;99.90
51982;DHT22;37998;53.416;6.730;2023-04-24T01:53:15;11.10;99.90
51982;DHT22;37998;53.416;6.730;2023-04-24T01:55:41;11.10;99.90
51982;DHT22;37998;53.416;6.730;2023-04-24T01:58:07;11.00;99.90
51982;DHT22;37998;53.416;6.730;2023-04-24T02:00:33;11.00;99.90
51982;DHT22;37998;53.416;6.730;2023-04-24T02:02:59;11.00;99.90
51982;DHT22;37998;53.416;6.730;2023-04-24T02:05:27;11.00;99.90
51982;DHT22;37998;53.416;6.730;2023-04-24T02:07:55;11.00;99.90
51982;DHT22;37998;53.416;6.730;2023-04-24T02:10:20;10.90;99.90
51982;DHT22;37998;53.416;6.730;2023-04-24T02:12:46;11.00;99.90
51982;DHT22;37998;53.416;6.730;2023-04-24T02:15:12;11.00;99.90
51982;DHT22;37998;53.416;6.730;2023-04-24T02:17:38;10.90;99.90
51982;DHT22;37998;53.416;6.730;2023-04-24T02:20:06;11.00;99.90
51982;DHT22;37998;53.416;6.730;2023-04-24T02:22:32;11.00;99.90
51982;DHT22;37998;53.416;6.730;2023-04-24T02:25:01;11.00;99.90
51982;DHT22;37998;53.416;6.730;2023-04-24T02:27:27;10.90;99.90
51982;DHT22;37998;53.416;6.730;2023-04-24T02:29:53;10.90;99.90
51982;DHT22;37998;53.416;6.730;2023-04-24T02:32:19;10.80;99.90
51982;DHT22;37998;53.416;6.730;2023-04-24T02:34:44;10.80;99.90
51982;DHT22;37998;53.416;6.730;2023-04-24T02:37:11;10.70;99.90
51982;DHT22;37998;53.416;6.730;2023-04-24T02:39:37;10.70;99.90
51982;DHT22;37998;53.416;6.730;2023-04-24T02:42:04;10.60;99.90
51982;DHT22;37998;53.416;6.730;2023-04-24T02:44:30;10.60;99.90
51982;DHT22;37998;53.416;6.730;2023-04-24T02:46:56;10.60;99.90
51982;DHT22;37998;53.416;6.730;2023-04-24T02:49:22;10.60;99.90
51982;DHT22;37998;53.416;6.730;2023-04-24T02:51:48;10.50;99.90
51982;DHT22;37998;53.416;6.730;2023-04-24T02:54:14;10.60;99.90
51982;DHT22;37998;53.416;6.730;2023-04-24T02:56:40;10.50;99.90
51982;DHT22;37998;53.416;6.730;2023-04-24T02:59:08;10.50;99.90
51982;DHT22;37998;53.416;6.730;2023-04-24T03:01:34;10.50;99.90
51982;DHT22;37998;53.416;6.730;2023-04-24T03:04:00;10.50;99.90
51982;DHT22;37998;53.416;6.730;2023-04-24T03:06:25;10.50;99.90
51982;DHT22;37998;53.416;6.730;2023-04-24T03:08:52;10.40;99.90
51982;DHT22;37998;53.416;6.730;2023-04-24T03:11:19;10.40;99.90
51982;DHT22;37998;53.416;6.730;2023-04-24T03:13:45;10.50;99.90
51982;DHT22;37998;53.416;6.730;2023-04-24T03:16:11;10.40;99.90
51982;DHT22;37998;53.416;6.730;2023-04-24T03:18:37;10.40;99.90
51982;DHT22;37998;53.416;6.730;2023-04-24T03:21:04;10.50;99.90
51982;DHT22;37998;53.416;6.730;2023-04-24T03:23:31;10.40;99.90
51982;DHT22;37998;53.416;6.730;2023-04-24T03:25:57;10.50;99.90
51982;DHT22;37998;53.416;6.730;2023-04-24T03:28:22;10.50;99.90
51982;DHT22;37998;53.416;6.730;2023-04-24T03:30:55;10.50;99.90
51982;DHT22;37998;53.416;6.730;2023-04-24T03:33:22;10.60;99.90
51982;DHT22;37998;53.416;6.730;2023-04-24T03:36:14;10.50;99.90
51982;DHT22;37998;53.416;6.730;2023-04-24T03:38:41;10.50;99.90
51982;DHT22;37998;53.416;6.730;2023-04-24T03:41:42;10.60;99.90
51982;DHT22;37998;53.416;6.730;2023-04-24T03:44:16;10.60;99.90
51982;DHT22;37998;53.416;6.730;2023-04-24T03:46:42;10.60;99.90
51982;DHT22;37998;53.416;6.730;2023-04-24T03:49:08;10.60;99.90
51982;DHT22;37998;53.416;6.730;2023-04-24T03:51:38;10.60;99.90
51982;DHT22;37998;53.416;6.730;2023-04-24T03:54:17;10.60;99.90
51982;DHT22;37998;53.416;6.730;2023-04-24T03:56:44;10.60;99.90
51982;DHT22;37998;53.416;6.730;2023-04-24T03:59:10;10.60;99.90
51982;DHT22;37998;53.416;6.730;2023-04-24T04:01:38;10.60;99.90
51982;DHT22;37998;53.416;6.730;2023-04-24T04:04:10;10.60;99.90
51982;DHT22;37998;53.416;6.730;2023-04-24T04:06:37;10.60;99.90
51982;DHT22;37998;53.416;6.730;2023-04-24T04:09:04;10.60;99.90
51982;DHT22;37998;53.416;6.730;2023-04-24T04:11:31;10.60;99.90
51982;DHT22;37998;53.416;6.730;2023-04-24T04:13:57;10.60;99.90
51982;DHT22;37998;53.416;6.730;2023-04-24T04:16:24;10.60;99.90
51982;DHT22;37998;53.416;6.730;2023-04-24T04:18:55;10.60;99.90
51982;DHT22;37998;53.416;6.730;2023-04-24T04:21:21;10.60;99.90
51982;DHT22;37998;53.416;6.730;2023-04-24T04:23:49;10.60;99.90
51982;DHT22;37998;53.416;6.730;2023-04-24T04:26:24;10.70;99.90
51982;DHT22;37998;53.416;6.730;2023-04-24T04:29:00;10.70;99.90
51982;DHT22;37998;53.416;6.730;2023-04-24T04:31:27;10.60;99.90
51982;DHT22;37998;53.416;6.730;2023-04-24T04:33:54;10.60;99.90
51982;DHT22;37998;53.416;6.730;2023-04-24T04:36:21;10.60;99.90
51982;DHT22;37998;53.416;6.730;2023-04-24T04:38:52;10.70;99.90
51982;DHT22;37998;53.416;6.730;2023-04-24T04:41:38;10.60;99.90
51982;DHT22;37998;53.416;6.730;2023-04-24T04:44:06;10.60;99.90
51982;DHT22;37998;53.416;6.730;2023-04-24T04:46:34;10.60;99.90
51982;DHT22;37998;53.416;6.730;2023-04-24T04:49:19;10.60;99.90
51982;DHT22;37998;53.416;6.730;2023-04-24T04:51:47;10.70;99.90
51982;DHT22;37998;53.416;6.730;2023-04-24T04:54:14;10.60;99.90
51982;DHT22;37998;53.416;6.730;2023-04-24T04:56:41;10.70;99.90
51982;DHT22;37998;53.416;6.730;2023-04-24T04:59:07;10.70;99.90
51982;DHT22;37998;53.416;6.730;2023-04-24T05:01:35;10.70;99.90
51982;DHT22;37998;53.416;6.730;2023-04-24T05:04:01;10.70;99.90
51982;DHT22;37998;53.416;6.730;2023-04-24T05:06:27;10.70;99.90
51982;DHT22;37998;53.416;6.730;2023-04-24T05:08:54;10.70;99.90
51982;DHT22;37998;53.416;6.730;2023-04-24T05:11:33;10.70;99.90
51982;DHT22;37998;53.416;6.730;2023-04-24T05:14:01;10.70;99.90
51982;DHT22;37998;53.416;6.730;2023-04-24T05:16:36;10.70;99.90
51982;DHT22;37998;53.416;6.730;2023-04-24T05:19:03;10.70;99.90
51982;DHT22;37998;53.416;6.730;2023-04-24T05:21:34;10.70;99.90
51982;DHT22;37998;53.416;6.730;2023-04-24T05:24:00;10.80;99.90
51982;DHT22;37998;53.416;6.730;2023-04-24T05:26:59;10.80;99.90
51982;DHT22;37998;53.416;6.730;2023-04-24T05:29:31;10.80;99.90
51982;DHT22;37998;53.416;6.730;2023-04-24T05:31:57;10.80;99.90
51982;DHT22;37998;53.416;6.730;2023-04-24T05:34:24;10.80;99.90
51982;DHT22;37998;53.416;6.730;2023-04-24T05:36:54;10.80;99.90
51982;DHT22;37998;53.416;6.730;2023-04-24T05:39:20;10.80;99.90
51982;DHT22;37998;53.416;6.730;2023-04-24T05:41:46;10.80;99.90
51982;DHT22;37998;53.416;6.730;2023-04-24T05:44:12;10.80;99.90
51982;DHT22;37998;53.416;6.730;2023-04-24T05:46:37;10.90;99.90
51982;DHT22;37998;53.416;6.730;2023-04-24T05:49:03;10.80;99.90
51982;DHT22;37998;53.416;6.730;2023-04-24T05:51:31;10.80;99.90
51982;DHT22;37998;53.416;6.730;2023-04-24T05:53:58;10.80;99.90
51982;DHT22;37998;53.416;6.730;2023-04-24T05:56:25;10.80;99.90
51982;DHT22;37998;53.416;6.730;2023-04-24T05:58:51;10.80;99.90
51982;DHT22;37998;53.416;6.730;2023-04-24T06:01:17;10.80;99.90
51982;DHT22;37998;53.416;6.730;2023-04-24T06:03:47;10.80;99.90
51982;DHT22;37998;53.416;6.730;2023-04-24T06:06:13;10.80;99.90
51982;DHT22;37998;53.416;6.730;2023-04-24T06:08:39;10.80;99.90
51982;DHT22;37998;53.416;6.730;2023-04-24T06:11:05;10.80;99.90
51982;DHT22;37998;53.416;6.730;2023-04-24T06:13:31;10.80;99.90
51982;DHT22;37998;53.416;6.730;2023-04-24T06:16:23;10.80;99.90
51982;DHT22;37998;53.416;6.730;2023-04-24T06:18:55;10.90;99.90
51982;DHT22;37998;53.416;6.730;2023-04-24T06:21:21;10.80;99.90
51982;DHT22;37998;53.416;6.730;2023-04-24T06:23:47;10.80;99.90
51982;DHT22;37998;53.416;6.730;2023-04-24T06:26:14;10.80;99.90
51982;DHT22;37998;53.416;6.730;2023-04-24T06:28:40;10.80;99.90
51982;DHT22;37998;53.416;6.730;2023-04-24T06:31:06;10.80;99.90
51982;DHT22;37998;53.416;6.730;2023-04-24T06:33:32;10.80;99.90
51982;DHT22;37998;53.416;6.730;2023-04-24T06:35:58;10.80;99.90
51982;DHT22;37998;53.416;6.730;2023-04-24T06:38:23;10.80;99.90
51982;DHT22;37998;53.416;6.730;2023-04-24T06:40:49;10.80;99.90
51982;DHT22;37998;53.416;6.730;2023-04-24T06:43:15;10.70;99.90
51982;DHT22;37998;53.416;6.730;2023-04-24T06:45:41;10.70;99.90
51982;DHT22;37998;53.416;6.730;2023-04-24T06:48:09;10.70;99.90
51982;DHT22;37998;53.416;6.730;2023-04-24T06:50:35;10.60;99.90
51982;DHT22;37998;53.416;6.730;2023-04-24T06:53:01;10.50;99.90
51982;DHT22;37998;53.416;6.730;2023-04-24T06:55:27;10.50;99.90
51982;DHT22;37998;53.416;6.730;2023-04-24T06:57:53;10.40;99.90
51982;DHT22;37998;53.416;6.730;2023-04-24T07:00:19;10.40;99.90
51982;DHT22;37998;53.416;6.730;2023-04-24T07:02:45;10.40;99.90
51982;DHT22;37998;53.416;6.730;2023-04-24T07:05:11;10.40;99.90
51982;DHT22;37998;53.416;6.730;2023-04-24T07:07:38;10.40;99.90
51982;DHT22;37998;53.416;6.730;2023-04-24T07:10:06;10.40;99.90
51982;DHT22;37998;53.416;6.730;2023-04-24T07:12:32;10.40;99.90
51982;DHT22;37998;53.416;6.730;2023-04-24T07:14:58;10.40;99.90
51982;DHT22;37998;53.416;6.730;2023-04-24T07:17:24;10.40;99.90
51982;DHT22;37998;53.416;6.730;2023-04-24T07:19:50;10.50;99.90
51982;DHT22;37998;53.416;6.730;2023-04-24T07:22:16;10.50;99.90
51982;DHT22;37998;53.416;6.730;2023-04-24T07:24:45;10.50;99.90
51982;DHT22;37998;53.416;6.730;2023-04-24T07:27:11;10.50;99.90
51982;DHT22;37998;53.416;6.730;2023-04-24T07:29:37;10.50;99.90
51982;DHT22;37998;53.416;6.730;2023-04-24T07:32:03;10.40;99.90
51982;DHT22;37998;53.416;6.730;2023-04-24T07:34:29;10.40;99.90
51982;DHT22;37998;53.416;6.730;2023-04-24T07:36:55;10.40;99.90
51982;DHT22;37998;53.416;6.730;2023-04-24T07:39:21;10.30;99.90
51982;DHT22;37998;53.416;6.730;2023-04-24T07:41:47;10.30;99.90
51982;DHT22;37998;53.416;6.730;2023-04-24T07:44:13;10.20;99.90
51982;DHT22;37998;53.416;6.730;2023-04-24T07:46:40;10.20;99.90
51982;DHT22;37998;53.416;6.730;2023-04-24T07:49:06;10.20;99.90
51982;DHT22;37998;53.416;6.730;2023-04-24T07:51:32;10.20;99.90
51982;DHT22;37998;53.416;6.730;2023-04-24T07:54:04;10.20;99.90
51982;DHT22;37998;53.416;6.730;2023-04-24T07:56:32;10.10;99.90
51982;DHT22;37998;53.416;6.730;2023-04-24T07:58:58;10.10;99.90
51982;DHT22;37998;53.416;6.730;2023-04-24T08:01:24;10.10;99.90
51982;DHT22;37998;53.416;6.730;2023-04-24T08:03:50;10.10;99.90
51982;DHT22;37998;53.416;6.730;2023-04-24T08:06:17;10.10;99.90
51982;DHT22;37998;53.416;6.730;2023-04-24T08:08:43;10.10;99.90
51982;DHT22;37998;53.416;6.730;2023-04-24T08:11:09;10.10;99.90
51982;DHT22;37998;53.416;6.730;2023-04-24T08:13:35;10.00;99.90
51982;DHT22;37998;53.416;6.730;2023-04-24T08:16:01;10.10;99.90
51982;DHT22;37998;53.416;6.730;2023-04-24T08:18:27;10.10;99.90
51982;DHT22;37998;53.416;6.730;2023-04-24T08:20:53;10.10;99.90
51982;DHT22;37998;53.416;6.730;2023-04-24T08:23:19;10.10;99.90
51982;DHT22;37998;53.416;6.730;2023-04-24T08:25:45;10.00;99.90
51982;DHT22;37998;53.416;6.730;2023-04-24T08:28:11;10.10;99.90
51982;DHT22;37998;53.416;6.730;2023-04-24T08:30:37;10.00;99.90
51982;DHT22;37998;53.416;6.730;2023-04-24T08:33:04;10.00;99.90
51982;DHT22;37998;53.416;6.730;2023-04-24T08:35:29;10.00;99.90
51982;DHT22;37998;53.416;6.730;2023-04-24T08:37:55;10.00;99.90
51982;DHT22;37998;53.416;6.730;2023-04-24T08:40:27;10.00;99.90
51982;DHT22;37998;53.416;6.730;2023-04-24T08:42:55;10.00;99.90
51982;DHT22;37998;53.416;6.730;2023-04-24T08:45:24;9.90;99.90
51982;DHT22;37998;53.416;6.730;2023-04-24T08:47:52;9.90;99.90
51982;DHT22;37998;53.416;6.730;2023-04-24T08:50:20;10.00;99.90
51982;DHT22;37998;53.416;6.730;2023-04-24T08:52:49;10.00;99.90
51982;DHT22;37998;53.416;6.730;2023-04-24T08:55:16;9.90;99.90
51982;DHT22;37998;53.416;6.730;2023-04-24T08:57:45;9.90;99.90
51982;DHT22;37998;53.416;6.730;2023-04-24T09:00:12;9.90;99.90
51982;DHT22;37998;53.416;6.730;2023-04-24T09:02:44;9.80;99.90
51982;DHT22;37998;53.416;6.730;2023-04-24T09:05:11;9.70;99.90
51982;DHT22;37998;53.416;6.730;2023-04-24T09:07:39;9.70;99.90
51982;DHT22;37998;53.416;6.730;2023-04-24T09:10:07;9.70;99.90
51982;DHT22;37998;53.416;6.730;2023-04-24T09:12:34;9.60;99.90
51982;DHT22;37998;53.416;6.730;2023-04-24T09:15:02;9.60;99.90
51982;DHT22;37998;53.416;6.730;2023-04-24T09:17:30;9.60;99.90
51982;DHT22;37998;53.416;6.730;2023-04-24T09:19:56;9.60;99.90
51982;DHT22;37998;53.416;6.730;2023-04-24T09:22:22;9.60;99.90
51982;DHT22;37998;53.416;6.730;2023-04-24T09:25:08;9.60;99.90
51982;DHT22;37998;53.416;6.730;2023-04-24T09:27:35;9.60;99.90
51982;DHT22;37998;53.416;6.730;2023-04-24T09:30:02;9.60;99.90
51982;DHT22;37998;53.416;6.730;2023-04-24T09:32:28;9.60;99.90
51982;DHT22;37998;53.416;6.730;2023-04-24T09:35:06;9.60;99.90
51982;DHT22;37998;53.416;6.730;2023-04-24T09:37:41;9.60;99.90
51982;DHT22;37998;53.416;6.730;2023-04-24T09:40:08;9.60;99.90
51982;DHT22;37998;53.416;6.730;2023-04-24T09:42:36;9.60;99.90
51982;DHT22;37998;53.416;6.730;2023-04-24T09:45:02;9.70;99.90
51982;DHT22;37998;53.416;6.730;2023-04-24T09:47:36;9.70;99.90
51982;DHT22;37998;53.416;6.730;2023-04-24T09:50:10;9.70;99.90
51982;DHT22;37998;53.416;6.730;2023-04-24T09:52:40;9.70;99.90
51982;DHT22;37998;53.416;6.730;2023-04-24T09:55:27;9.80;99.90
51982;DHT22;37998;53.416;6.730;2023-04-24T10:00:28;9.80;99.90
51982;DHT22;37998;53.416;6.730;2023-04-24T10:03:02;9.80;99.90
51982;DHT22;37998;53.416;6.730;2023-04-24T10:05:36;9.80;99.90
51982;DHT22;37998;53.416;6.730;2023-04-24T10:08:05;9.70;99.90
51982;DHT22;37998;53.416;6.730;2023-04-24T10:10:33;9.70;99.90
51982;DHT22;37998;53.416;6.730;2023-04-24T10:13:00;9.70;99.90
51982;DHT22;37998;53.416;6.730;2023-04-24T10:15:27;9.80;99.90
51982;DHT22;37998;53.416;6.730;2023-04-24T10:17:53;9.80;99.90
51982;DHT22;37998;53.416;6.730;2023-04-24T10:20:21;9.80;99.90
51982;DHT22;37998;53.416;6.730;2023-04-24T10:22:49;9.80;99.90
51982;DHT22;37998;53.416;6.730;2023-04-24T10:25:18;9.70;99.90
51982;DHT22;37998;53.416;6.730;2023-04-24T10:27:46;9.70;99.90
51982;DHT22;37998;53.416;6.730;2023-04-24T10:30:12;9.80;99.90
51982;DHT22;37998;53.416;6.730;2023-04-24T10:32:39;9.90;99.90
51982;DHT22;37998;53.416;6.730;2023-04-24T10:35:07;9.90;99.90
51982;DHT22;37998;53.416;6.730;2023-04-24T10:38:26;9.90;99.90
51982;DHT22;37998;53.416;6.730;2023-04-24T10:40:31;10.00;99.90
51982;DHT22;37998;53.416;6.730;2023-04-24T10:42:58;10.00;99.90
51982;DHT22;37998;53.416;6.730;2023-04-24T10:45:25;10.00;99.90
51982;DHT22;37998;53.416;6.730;2023-04-24T10:48:09;10.00;99.90
51982;DHT22;37998;53.416;6.730;2023-04-24T10:50:46;10.00;99.90
51982;DHT22;37998;53.416;6.730;2023-04-24T10:53:17;10.00;99.90
51982;DHT22;37998;53.416;6.730;2023-04-24T10:55:48;10.00;99.90
51982;DHT22;37998;53.416;6.730;2023-04-24T10:58:14;9.90;99.90
51982;DHT22;37998;53.416;6.730;2023-04-24T11:00:43;9.90;99.90
51982;DHT22;37998;53.416;6.730;2023-04-24T11:03:27;9.90;99.90
51982;DHT22;37998;53.416;6.730;2023-04-24T11:11:00;10.00;99.90
51982;DHT22;37998;53.416;6.730;2023-04-24T11:13:31;10.00;99.90
51982;DHT22;37998;53.416;6.730;2023-04-24T11:16:23;10.00;99.90
51982;DHT22;37998;53.416;6.730;2023-04-24T11:21:47;10.10;99.90
51982;DHT22;37998;53.416;6.730;2023-04-24T11:26:52;10.20;99.90
51982;DHT22;37998;53.416;6.730;2023-04-24T11:29:20;10.30;99.90
51982;DHT22;37998;53.416;6.730;2023-04-24T11:31:46;10.30;99.90
51982;DHT22;37998;53.416;6.730;2023-04-24T11:34:16;10.40;99.90
51982;DHT22;37998;53.416;6.730;2023-04-24T11:36:44;10.50;99.90
51982;DHT22;37998;53.416;6.730;2023-04-24T11:39:12;10.60;99.90
51982;DHT22;37998;53.416;6.730;2023-04-24T11:41:38;10.70;99.90
51982;DHT22;37998;53.416;6.730;2023-04-24T11:44:09;10.80;99.90
51982;DHT22;37998;53.416;6.730;2023-04-24T11:46:35;10.80;99.90
51982;DHT22;37998;53.416;6.730;2023-04-24T11:49:03;10.90;99.90
51982;DHT22;37998;53.416;6.730;2023-04-24T11:51:29;11.10;99.90
51982;DHT22;37998;53.416;6.730;2023-04-24T11:53:56;11.10;99.90
51982;DHT22;37998;53.416;6.730;2023-04-24T11:56:23;11.10;99.90
51982;DHT22;37998;53.416;6.730;2023-04-24T11:58:52;11.10;99.90
51982;DHT22;37998;53.416;6.730;2023-04-24T12:01:20;11.20;99.90
51982;DHT22;37998;53.416;6.730;2023-04-24T12:03:50;11.10;99.90
51982;DHT22;37998;53.416;6.730;2023-04-24T12:06:17;11.10;99.90
51982;DHT22;37998;53.416;6.730;2023-04-24T12:08:46;11.10;99.90
51982;DHT22;37998;53.416;6.730;2023-04-24T12:11:15;11.00;99.90
51982;DHT22;37998;53.416;6.730;2023-04-24T12:13:41;11.00;99.90
51982;DHT22;37998;53.416;6.730;2023-04-24T12:16:07;11.00;99.90
51982;DHT22;37998;53.416;6.730;2023-04-24T12:18:33;10.90;99.90
51982;DHT22;37998;53.416;6.730;2023-04-24T12:21:16;10.90;99.90
51982;DHT22;37998;53.416;6.730;2023-04-24T12:23:45;11.00;99.90
51982;DHT22;37998;53.416;6.730;2023-04-24T12:26:12;11.00;99.90
51982;DHT22;37998;53.416;6.730;2023-04-24T12:28:41;11.00;99.90
51982;DHT22;37998;53.416;6.730;2023-04-24T12:31:07;10.90;99.90
51982;DHT22;37998;53.416;6.730;2023-04-24T12:33:34;10.80;99.90
51982;DHT22;37998;53.416;6.730;2023-04-24T12:36:01;10.80;99.90
51982;DHT22;37998;53.416;6.730;2023-04-24T12:38:28;10.70;99.90
51982;DHT22;37998;53.416;6.730;2023-04-24T12:41:12;10.70;99.90
51982;DHT22;37998;53.416;6.730;2023-04-24T12:43:38;10.60;99.90
51982;DHT22;37998;53.416;6.730;2023-04-24T12:46:04;10.50;99.90
51982;DHT22;37998;53.416;6.730;2023-04-24T12:48:30;10.60;99.90
51982;DHT22;37998;53.416;6.730;2023-04-24T12:50:58;10.60;99.90
51982;DHT22;37998;53.416;6.730;2023-04-24T12:53:27;10.70;99.90
51982;DHT22;37998;53.416;6.730;2023-04-24T12:55:55;10.70;99.90
51982;DHT22;37998;53.416;6.730;2023-04-24T12:58:21;10.70;99.90
51982;DHT22;37998;53.416;6.730;2023-04-24T13:00:47;10.70;99.90
51982;DHT22;37998;53.416;6.730;2023-04-24T13:03:14;10.70;99.90
51982;DHT22;37998;53.416;6.730;2023-04-24T13:05:41;10.60;99.90
51982;DHT22;37998;53.416;6.730;2023-04-24T13:08:07;10.60;99.90
51982;DHT22;37998;53.416;6.730;2023-04-24T13:10:34;10.40;99.90
51982;DHT22;37998;53.416;6.730;2023-04-24T13:13:00;10.40;99.90
51982;DHT22;37998;53.416;6.730;2023-04-24T13:15:26;10.40;99.90
51982;DHT22;37998;53.416;6.730;2023-04-24T13:17:52;10.40;99.90
51982;DHT22;37998;53.416;6.730;2023-04-24T13:20:18;10.40;99.90
51982;DHT22;37998;53.416;6.730;2023-04-24T13:22:44;10.40;99.90
51982;DHT22;37998;53.416;6.730;2023-04-24T13:25:10;10.30;99.90
51982;DHT22;37998;53.416;6.730;2023-04-24T13:27:38;10.30;99.90
51982;DHT22;37998;53.416;6.730;2023-04-24T13:30:05;10.30;99.90
51982;DHT22;37998;53.416;6.730;2023-04-24T13:32:32;10.30;99.90
51982;DHT22;37998;53.416;6.730;2023-04-24T13:34:59;10.30;99.90
51982;DHT22;37998;53.416;6.730;2023-04-24T13:37:24;10.20;99.90
51982;DHT22;37998;53.416;6.730;2023-04-24T13:39:50;10.20;99.90
51982;DHT22;37998;53.416;6.730;2023-04-24T13:42:16;10.20;99.90
51982;DHT22;37998;53.416;6.730;2023-04-24T13:44:42;10.20;99.90
51982;DHT22;37998;53.416;6.730;2023-04-24T13:47:08;10.20;99.90
51982;DHT22;37998;53.416;6.730;2023-04-24T13:49:34;10.20;99.90
51982;DHT22;37998;53.416;6.730;2023-04-24T13:52:01;10.20;99.90
51982;DHT22;37998;53.416;6.730;2023-04-24T13:54:27;10.20;99.90
51982;DHT22;37998;53.416;6.730;2023-04-24T13:56:55;10.30;99.90
51982;DHT22;37998;53.416;6.730;2023-04-24T13:59:22;10.30;99.90
51982;DHT22;37998;53.416;6.730;2023-04-24T14:01:47;10.40;99.90
51982;DHT22;37998;53.416;6.730;2023-04-24T14:04:13;10.40;99.90
51982;DHT22;37998;53.416;6.730;2023-04-24T14:06:39;10.50;99.90
51982;DHT22;37998;53.416;6.730;2023-04-24T14:09:06;10.50;99.90
51982;DHT22;37998;53.416;6.730;2023-04-24T14:11:32;10.50;99.90
51982;DHT22;37998;53.416;6.730;2023-04-24T14:13:59;10.30;99.90
51982;DHT22;37998;53.416;6.730;2023-04-24T14:16:25;10.40;99.90
51982;DHT22;37998;53.416;6.730;2023-04-24T14:18:51;10.30;99.90
51982;DHT22;37998;53.416;6.730;2023-04-24T14:21:17;10.30;99.90
51982;DHT22;37998;53.416;6.730;2023-04-24T14:23:42;10.20;99.90
51982;DHT22;37998;53.416;6.730;2023-04-24T14:26:09;10.20;99.90
51982;DHT22;37998;53.416;6.730;2023-04-24T14:28:35;10.10;99.90
51982;DHT22;37998;53.416;6.730;2023-04-24T14:31:01;10.00;99.90
51982;DHT22;37998;53.416;6.730;2023-04-24T14:33:27;10.00;99.90
51982;DHT22;37998;53.416;6.730;2023-04-24T14:35:53;10.00;99.90
51982;DHT22;37998;53.416;6.730;2023-04-24T14:38:19;9.90;99.90
51982;DHT22;37998;53.416;6.730;2023-04-24T14:40:45;9.80;99.90
51982;DHT22;37998;53.416;6.730;2023-04-24T14:43:11;9.80;99.90
51982;DHT22;37998;53.416;6.730;2023-04-24T14:45:37;9.70;99.90
51982;DHT22;37998;53.416;6.730;2023-04-24T14:48:03;9.70;99.90
51982;DHT22;37998;53.416;6.730;2023-04-24T14:50:30;9.70;99.90
51982;DHT22;37998;53.416;6.730;2023-04-24T14:52:56;9.70;99.90
51982;DHT22;37998;53.416;6.730;2023-04-24T14:55:23;9.70;99.90
51982;DHT22;37998;53.416;6.730;2023-04-24T14:57:50;9.80;99.90
51982;DHT22;37998;53.416;6.730;2023-04-24T15:00:16;9.70;99.90
51982;DHT22;37998;53.416;6.730;2023-04-24T15:02:42;9.70;99.90
51982;DHT22;37998;53.416;6.730;2023-04-24T15:05:10;9.80;99.90
51982;DHT22;37998;53.416;6.730;2023-04-24T15:07:37;9.70;99.90
51982;DHT22;37998;53.416;6.730;2023-04-24T15:10:03;9.60;99.90
51982;DHT22;37998;53.416;6.730;2023-04-24T15:12:29;9.50;99.90
51982;DHT22;37998;53.416;6.730;2023-04-24T15:14:57;9.50;99.90
51982;DHT22;37998;53.416;6.730;2023-04-24T15:17:23;9.50;99.90
51982;DHT22;37998;53.416;6.730;2023-04-24T15:19:49;9.40;99.90
51982;DHT22;37998;53.416;6.730;2023-04-24T15:22:15;9.40;99.90
51982;DHT22;37998;53.416;6.730;2023-04-24T15:24:41;9.40;99.90
51982;DHT22;37998;53.416;6.730;2023-04-24T15:27:09;9.50;99.90
51982;DHT22;37998;53.416;6.730;2023-04-24T15:29:36;9.50;99.90
51982;DHT22;37998;53.416;6.730;2023-04-24T15:32:02;9.50;99.90
51982;DHT22;37998;53.416;6.730;2023-04-24T15:34:27;9.50;99.90
51982;DHT22;37998;53.416;6.730;2023-04-24T15:36:53;9.50;99.90
51982;DHT22;37998;53.416;6.730;2023-04-24T15:39:22;8.60;99.90
51982;DHT22;37998;53.416;6.730;2023-04-24T15:41:49;9.40;99.90
51982;DHT22;37998;53.416;6.730;2023-04-24T15:44:15;9.40;99.90
51982;DHT22;37998;53.416;6.730;2023-04-24T15:46:41;9.30;99.90
51982;DHT22;37998;53.416;6.730;2023-04-24T15:49:07;9.20;99.90
51982;DHT22;37998;53.416;6.730;2023-04-24T15:51:33;9.20;99.90